sensor_id;sensor_type;location;lat;lon;timestamp;temperature;humidity
5210;DHT22;2624;48.048;11.706;2023-12-07T00:04:44;1.00;99.90
5210;DHT22;2624;48.048;11.706;2023-12-07T00:09:47;1.00;99.90
5210;DHT22;2624;48.048;11.706;2023-12-07T00:14:49;1.00;99.90
5210;DHT22;2624;48.048;11.706;2023-12-07T00:19:51;1.00;99.90
5210;DHT22;2624;48.048;11.706;2023-12-07T00:24:55;1.10;99.90
5210;DHT22;2624;48.048;11.706;2023-12-07T00:29:57;1.00;99.90
5210;DHT22;2624;48.048;11.706;2023-12-07T00:34:59;1.00;99.90
5210;DHT22;2624;48.048;11.706;2023-12-07T00:40:02;1.00;99.90
5210;DHT22;2624;48.048;11.706;2023-12-07T00:45:05;1.00;99.90
5210;DHT22;2624;48.048;11.706;2023-12-07T00:50:07;0.90;99.90
5210;DHT22;2624;48.048;11.706;2023-12-07T00:55:11;1.00;99.90
5210;DHT22;2624;48.048;11.706;2023-12-07T01:00:13;0.90;99.90
5210;DHT22;2624;48.048;11.706;2023-12-07T01:05:15;0.90;99.90
5210;DHT22;2624;48.048;11.706;2023-12-07T01:10:18;0.90;99.90
5210;DHT22;2624;48.048;11.706;2023-12-07T01:15:19;0.70;99.90
5210;DHT22;2624;48.048;11.706;2023-12-07T01:20:21;0.60;99.90
5210;DHT22;2624;48.048;11.706;2023-12-07T01:25:24;0.80;99.90
5210;DHT22;2624;48.048;11.706;2023-12-07T01:30:26;0.70;99.90
5210;DHT22;2624;48.048;11.706;2023-12-07T01:35:28;0.80;99.90
5210;DHT22;2624;48.048;11.706;2023-12-07T01:40:31;0.70;99.90
5210;DHT22;2624;48.048;11.706;2023-12-07T01:45:33;0.80;99.90
5210;DHT22;2624;48.048;11.706;2023-12-07T01:50:35;0.70;99.90
5210;DHT22;2624;48.048;11.706;2023-12-07T01:55:39;0.70;99.90
5210;DHT22;2624;48.048;11.706;2023-12-07T02:00:41;0.70;99.90
5210;DHT22;2624;48.048;11.706;2023-12-07T02:05:46;0.60;99.90
5210;DHT22;2624;48.048;11.706;2023-12-07T02:10:50;0.30;99.90
5210;DHT22;2624;48.048;11.706;2023-12-07T02:15:54;0.30;99.90
5210;DHT22;2624;48.048;11.706;2023-12-07T02:21:01;0.60;99.90
5210;DHT22;2624;48.048;11.706;2023-12-07T02:31:56;0.50;99.90
5210;DHT22;2624;48.048;11.706;2023-12-07T02:36:59;0.40;99.90
5210;DHT22;2624;48.048;11.706;2023-12-07T02:42:03;0.50;99.90
5210;DHT22;2624;48.048;11.706;2023-12-07T02:47:07;0.50;99.90
5210;DHT22;2624;48.048;11.706;2023-12-07T02:52:09;0.50;99.90
5210;DHT22;2624;48.048;11.706;2023-12-07T02:57:11;0.50;99.90
5210;DHT22;2624;48.048;11.706;2023-12-07T03:02:16;0.30;99.90
5210;DHT22;2624;48.048;11.706;2023-12-07T03:07:18;0.20;99.90
5210;DHT22;2624;48.048;11.706;2023-12-07T03:12:20;0.20;99.90
5210;DHT22;2624;48.048;11.706;2023-12-07T03:17:23;0.30;99.90
5210;DHT22;2624;48.048;11.706;2023-12-07T03:22:25;0.30;99.90
5210;DHT22;2624;48.048;11.706;2023-12-07T03:27:26;0.40;99.90
5210;DHT22;2624;48.048;11.706;2023-12-07T03:32:30;0.40;99.90
5210;DHT22;2624;48.048;11.706;2023-12-07T03:37:31;0.40;99.90
5210;DHT22;2624;48.048;11.706;2023-12-07T03:42:33;0.40;99.90
5210;DHT22;2624;48.048;11.706;2023-12-07T03:47:36;0.30;99.90
5210;DHT22;2624;48.048;11.706;2023-12-07T03:52:38;0.40;99.90
5210;DHT22;2624;48.048;11.706;2023-12-07T03:57:40;0.30;99.90
5210;DHT22;2624;48.048;11.706;2023-12-07T04:02:43;0.20;99.90
5210;DHT22;2624;48.048;11.706;2023-12-07T04:07:45;0.20;99.90
5210;DHT22;2624;48.048;11.706;2023-12-07T04:12:46;0.30;99.90
5210;DHT22;2624;48.048;11.706;2023-12-07T04:17:50;0.10;99.90
5210;DHT22;2624;48.048;11.706;2023-12-07T04:22:51;0.10;99.90
5210;DHT22;2624;48.048;11.706;2023-12-07T04:27:53;0.10;99.90
5210;DHT22;2624;48.048;11.706;2023-12-07T04:32:58;0.00;99.90
5210;DHT22;2624;48.048;11.706;2023-12-07T04:37:59;0.00;99.90
5210;DHT22;2624;48.048;11.706;2023-12-07T04:43:01;0.10;99.90
5210;DHT22;2624;48.048;11.706;2023-12-07T04:48:04;0.00;99.90
5210;DHT22;2624;48.048;11.706;2023-12-07T04:53:06;0.20;99.90
5210;DHT22;2624;48.048;11.706;2023-12-07T04:58:08;0.20;99.90
5210;DHT22;2624;48.048;11.706;2023-12-07T05:03:11;0.20;99.90
5210;DHT22;2624;48.048;11.706;2023-12-07T05:08:13;0.30;99.90
5210;DHT22;2624;48.048;11.706;2023-12-07T05:13:14;0.20;99.90
5210;DHT22;2624;48.048;11.706;2023-12-07T05:18:17;0.10;99.90
5210;DHT22;2624;48.048;11.706;2023-12-07T05:23:19;0.10;99.90
5210;DHT22;2624;48.048;11.706;2023-12-07T05:28:21;-0.10;99.90
5210;DHT22;2624;48.048;11.706;2023-12-07T05:33:24;-0.10;99.90
5210;DHT22;2624;48.048;11.706;2023-12-07T05:38:26;-0.10;99.90
5210;DHT22;2624;48.048;11.706;2023-12-07T05:43:28;-0.10;99.90
5210;DHT22;2624;48.048;11.706;2023-12-07T05:48:31;-0.10;99.90
5210;DHT22;2624;48.048;11.706;2023-12-07T05:53:32;-0.10;99.90
5210;DHT22;2624;48.048;11.706;2023-12-07T05:58:34;0.00;99.90
5210;DHT22;2624;48.048;11.706;2023-12-07T06:03:37;-0.20;99.90
5210;DHT22;2624;48.048;11.706;2023-12-07T06:08:39;-0.30;99.90
5210;DHT22;2624;48.048;11.706;2023-12-07T06:13:42;0.00;99.90
5210;DHT22;2624;48.048;11.706;2023-12-07T06:18:45;-0.20;99.90
5210;DHT22;2624;48.048;11.706;2023-12-07T06:23:47;-0.30;99.90
5210;DHT22;2624;48.048;11.706;2023-12-07T06:28:48;-0.70;99.90
5210;DHT22;2624;48.048;11.706;2023-12-07T06:33:51;-0.80;99.90
5210;DHT22;2624;48.048;11.706;2023-12-07T06:38:54;-0.90;99.90
5210;DHT22;2624;48.048;11.706;2023-12-07T06:43:56;-1.00;99.90
5210;DHT22;2624;48.048;11.706;2023-12-07T06:48:59;-1.00;99.90
5210;DHT22;2624;48.048;11.706;2023-12-07T06:54:01;-0.90;99.90
5210;DHT22;2624;48.048;11.706;2023-12-07T06:59:03;-0.90;99.90
5210;DHT22;2624;48.048;11.706;2023-12-07T07:04:06;-0.80;99.90
5210;DHT22;2624;48.048;11.706;2023-12-07T07:09:09;-0.70;99.90
5210;DHT22;2624;48.048;11.706;2023-12-07T07:14:11;-0.50;99.90
5210;DHT22;2624;48.048;11.706;2023-12-07T07:19:15;-0.40;99.90
5210;DHT22;2624;48.048;11.706;2023-12-07T07:24:17;-0.40;99.90
5210;DHT22;2624;48.048;11.706;2023-12-07T07:29:19;-0.80;99.90
5210;DHT22;2624;48.048;11.706;2023-12-07T07:34:22;-0.70;99.90
5210;DHT22;2624;48.048;11.706;2023-12-07T07:39:25;-0.90;99.90
5210;DHT22;2624;48.048;11.706;2023-12-07T07:44:27;-0.60;99.90
5210;DHT22;2624;48.048;11.706;2023-12-07T07:49:30;-0.50;99.90
5210;DHT22;2624;48.048;11.706;2023-12-07T07:54:32;-0.50;99.90
5210;DHT22;2624;48.048;11.706;2023-12-07T07:59:33;-0.70;99.90
5210;DHT22;2624;48.048;11.706;2023-12-07T08:04:36;-0.90;99.90
5210;DHT22;2624;48.048;11.706;2023-12-07T08:09:38;-1.10;99.90
5210;DHT22;2624;48.048;11.706;2023-12-07T08:14:41;-1.10;99.90
5210;DHT22;2624;48.048;11.706;2023-12-07T08:19:45;-1.10;99.90
5210;DHT22;2624;48.048;11.706;2023-12-07T08:24:47;-1.10;99.90
5210;DHT22;2624;48.048;11.706;2023-12-07T08:29:50;-0.90;99.90
5210;DHT22;2624;48.048;11.706;2023-12-07T08:34:53;-1.00;99.90
5210;DHT22;2624;48.048;11.706;2023-12-07T08:39:55;-1.00;99.90
5210;DHT22;2624;48.048;11.706;2023-12-07T08:44:56;-0.90;99.90
5210;DHT22;2624;48.048;11.706;2023-12-07T08:49:59;-0.90;99.90
5210;DHT22;2624;48.048;11.706;2023-12-07T08:55:01;-0.90;99.90
5210;DHT22;2624;48.048;11.706;2023-12-07T09:00:04;-0.90;99.90
5210;DHT22;2624;48.048;11.706;2023-12-07T09:05:08;-0.90;99.90
5210;DHT22;2624;48.048;11.706;2023-12-07T09:10:11;-0.70;99.90
5210;DHT22;2624;48.048;11.706;2023-12-07T09:15:12;-0.70;99.90
5210;DHT22;2624;48.048;11.706;2023-12-07T09:20:16;-0.10;99.90
5210;DHT22;2624;48.048;11.706;2023-12-07T09:25:18;0.40;99.90
5210;DHT22;2624;48.048;11.706;2023-12-07T09:30:20;0.40;99.90
5210;DHT22;2624;48.048;11.706;2023-12-07T09:35:23;0.50;99.90
5210;DHT22;2624;48.048;11.706;2023-12-07T09:40:25;0.50;99.90
5210;DHT22;2624;48.048;11.706;2023-12-07T09:45:28;0.70;99.90
5210;DHT22;2624;48.048;11.706;2023-12-07T09:50:31;0.90;99.90
5210;DHT22;2624;48.048;11.706;2023-12-07T09:55:33;1.20;99.90
5210;DHT22;2624;48.048;11.706;2023-12-07T10:00:35;1.50;99.90
5210;DHT22;2624;48.048;11.706;2023-12-07T10:05:56;1.70;99.90
5210;DHT22;2624;48.048;11.706;2023-12-07T10:11:03;2.00;99.90
5210;DHT22;2624;48.048;11.706;2023-12-07T10:16:06;1.80;99.90
5210;DHT22;2624;48.048;11.706;2023-12-07T10:21:11;1.90;99.90
5210;DHT22;2624;48.048;11.706;2023-12-07T10:26:12;2.10;99.90
5210;DHT22;2624;48.048;11.706;2023-12-07T10:31:18;2.00;99.90
5210;DHT22;2624;48.048;11.706;2023-12-07T10:36:21;1.50;99.90
5210;DHT22;2624;48.048;11.706;2023-12-07T10:41:24;1.60;99.90
5210;DHT22;2624;48.048;11.706;2023-12-07T10:46:26;2.10;99.90
5210;DHT22;2624;48.048;11.706;2023-12-07T10:51:34;2.70;99.90
5210;DHT22;2624;48.048;11.706;2023-12-07T10:56:40;3.30;99.90
5210;DHT22;2624;48.048;11.706;2023-12-07T11:01:44;3.50;99.90
5210;DHT22;2624;48.048;11.706;2023-12-07T11:06:50;3.70;99.90
5210;DHT22;2624;48.048;11.706;2023-12-07T11:11:56;3.90;99.90
5210;DHT22;2624;48.048;11.706;2023-12-07T11:16:59;4.10;99.90
5210;DHT22;2624;48.048;11.706;2023-12-07T11:22:06;4.10;99.90
5210;DHT22;2624;48.048;11.706;2023-12-07T11:27:08;4.40;99.90
5210;DHT22;2624;48.048;11.706;2023-12-07T11:32:10;4.50;99.90
5210;DHT22;2624;48.048;11.706;2023-12-07T11:37:16;4.20;99.90
5210;DHT22;2624;48.048;11.706;2023-12-07T11:42:19;3.90;99.90
5210;DHT22;2624;48.048;11.706;2023-12-07T11:47:21;3.40;99.90
5210;DHT22;2624;48.048;11.706;2023-12-07T11:52:24;3.00;99.90
5210;DHT22;2624;48.048;11.706;2023-12-07T11:57:26;2.90;99.90
5210;DHT22;2624;48.048;11.706;2023-12-07T12:02:28;2.80;99.90
5210;DHT22;2624;48.048;11.706;2023-12-07T12:07:35;2.80;99.90
5210;DHT22;2624;48.048;11.706;2023-12-07T12:12:37;2.80;99.90
5210;DHT22;2624;48.048;11.706;2023-12-07T12:17:40;2.70;99.90
5210;DHT22;2624;48.048;11.706;2023-12-07T12:22:44;2.70;99.90
5210;DHT22;2624;48.048;11.706;2023-12-07T12:27:46;2.70;99.90
5210;DHT22;2624;48.048;11.706;2023-12-07T12:32:49;2.60;99.90
5210;DHT22;2624;48.048;11.706;2023-12-07T12:37:52;2.60;99.90
5210;DHT22;2624;48.048;11.706;2023-12-07T12:42:55;2.60;99.90
5210;DHT22;2624;48.048;11.706;2023-12-07T12:47:57;2.50;99.90
5210;DHT22;2624;48.048;11.706;2023-12-07T12:53:02;2.50;99.90
5210;DHT22;2624;48.048;11.706;2023-12-07T12:58:07;2.30;99.90
5210;DHT22;2624;48.048;11.706;2023-12-07T13:03:09;2.30;99.90
5210;DHT22;2624;48.048;11.706;2023-12-07T13:08:15;2.30;99.90
5210;DHT22;2624;48.048;11.706;2023-12-07T13:13:16;2.20;99.90
5210;DHT22;2624;48.048;11.706;2023-12-07T13:18:18;2.20;99.90
5210;DHT22;2624;48.048;11.706;2023-12-07T13:23:21;2.20;99.90
5210;DHT22;2624;48.048;11.706;2023-12-07T13:28:23;2.10;99.90
5210;DHT22;2624;48.048;11.706;2023-12-07T13:33:25;2.20;99.90
5210;DHT22;2624;48.048;11.706;2023-12-07T13:38:28;2.00;99.90
5210;DHT22;2624;48.048;11.706;2023-12-07T13:43:30;2.00;99.90
5210;DHT22;2624;48.048;11.706;2023-12-07T13:48:33;2.00;99.90
5210;DHT22;2624;48.048;11.706;2023-12-07T13:53:36;1.90;99.90
5210;DHT22;2624;48.048;11.706;2023-12-07T13:58:38;1.90;99.90
5210;DHT22;2624;48.048;11.706;2023-12-07T14:03:40;1.80;99.90
5210;DHT22;2624;48.048;11.706;2023-12-07T14:08:43;1.70;99.90
5210;DHT22;2624;48.048;11.706;2023-12-07T14:13:46;1.60;99.90
5210;DHT22;2624;48.048;11.706;2023-12-07T14:18:48;1.50;99.90
5210;DHT22;2624;48.048;11.706;2023-12-07T14:23:51;1.50;99.90
5210;DHT22;2624;48.048;11.706;2023-12-07T14:28:54;1.50;99.90
5210;DHT22;2624;48.048;11.706;2023-12-07T14:33:56;1.30;99.90
5210;DHT22;2624;48.048;11.706;2023-12-07T14:38:59;1.50;99.90
5210;DHT22;2624;48.048;11.706;2023-12-07T14:44:01;1.60;99.90
5210;DHT22;2624;48.048;11.706;2023-12-07T14:49:03;1.60;99.90
5210;DHT22;2624;48.048;11.706;2023-12-07T14:54:06;1.60;99.90
5210;DHT22;2624;48.048;11.706;2023-12-07T14:59:10;1.50;99.90
5210;DHT22;2624;48.048;11.706;2023-12-07T15:04:12;1.50;99.90
5210;DHT22;2624;48.048;11.706;2023-12-07T15:09:15;1.40;99.90
5210;DHT22;2624;48.048;11.706;2023-12-07T15:14:17;1.30;99.90
5210;DHT22;2624;48.048;11.706;2023-12-07T15:19:19;1.30;99.90
5210;DHT22;2624;48.048;11.706;2023-12-07T15:24:22;1.20;99.90
5210;DHT22;2624;48.048;11.706;2023-12-07T15:29:24;1.30;99.90
5210;DHT22;2624;48.048;11.706;2023-12-07T15:34:26;1.30;99.90
5210;DHT22;2624;48.048;11.706;2023-12-07T15:39:29;1.30;99.90
5210;DHT22;2624;48.048;11.706;2023-12-07T15:44:31;1.20;99.90
5210;DHT22;2624;48.048;11.706;2023-12-07T15:49:33;1.10;99.90
5210;DHT22;2624;48.048;11.706;2023-12-07T15:54:36;1.10;99.90
5210;DHT22;2624;48.048;11.706;2023-12-07T15:59:38;1.10;99.90
5210;DHT22;2624;48.048;11.706;2023-12-07T16:04:40;1.10;99.90
5210;DHT22;2624;48.048;11.706;2023-12-07T16:09:43;1.00;99.90
5210;DHT22;2624;48.048;11.706;2023-12-07T16:14:45;1.00;99.90
5210;DHT22;2624;48.048;11.706;2023-12-07T16:19:47;0.90;99.90
5210;DHT22;2624;48.048;11.706;2023-12-07T16:24:50;0.90;99.90
5210;DHT22;2624;48.048;11.706;2023-12-07T16:29:52;0.70;99.90
5210;DHT22;2624;48.048;11.706;2023-12-07T16:34:54;0.50;99.90
5210;DHT22;2624;48.048;11.706;2023-12-07T16:39:57;0.60;99.90
5210;DHT22;2624;48.048;11.706;2023-12-07T16:44:59;0.70;99.90
5210;DHT22;2624;48.048;11.706;2023-12-07T16:50:01;0.70;99.90
5210;DHT22;2624;48.048;11.706;2023-12-07T16:55:04;0.70;99.90
5210;DHT22;2624;48.048;11.706;2023-12-07T17:00:07;0.50;99.90
5210;DHT22;2624;48.048;11.706;2023-12-07T17:05:11;0.40;99.90
5210;DHT22;2624;48.048;11.706;2023-12-07T17:10:15;0.00;99.90
5210;DHT22;2624;48.048;11.706;2023-12-07T17:15:16;-0.70;99.90
5210;DHT22;2624;48.048;11.706;2023-12-07T17:20:18;-0.60;99.90
5210;DHT22;2624;48.048;11.706;2023-12-07T17:25:21;0.20;99.90
5210;DHT22;2624;48.048;11.706;2023-12-07T17:30:24;0.30;99.90
5210;DHT22;2624;48.048;11.706;2023-12-07T17:35:26;0.20;99.90
5210;DHT22;2624;48.048;11.706;2023-12-07T17:40:29;0.10;99.90
5210;DHT22;2624;48.048;11.706;2023-12-07T17:45:31;0.10;99.90
5210;DHT22;2624;48.048;11.706;2023-12-07T17:50:33;0.00;99.90
5210;DHT22;2624;48.048;11.706;2023-12-07T17:55:36;0.20;99.90
5210;DHT22;2624;48.048;11.706;2023-12-07T18:00:37;0.10;99.90
5210;DHT22;2624;48.048;11.706;2023-12-07T18:05:39;0.10;99.90
5210;DHT22;2624;48.048;11.706;2023-12-07T18:10:43;0.00;99.90
5210;DHT22;2624;48.048;11.706;2023-12-07T18:15:45;0.00;99.90
5210;DHT22;2624;48.048;11.706;2023-12-07T18:20:47;0.00;99.90
5210;DHT22;2624;48.048;11.706;2023-12-07T18:25:50;0.00;99.90
5210;DHT22;2624;48.048;11.706;2023-12-07T18:30:51;-0.20;99.90
5210;DHT22;2624;48.048;11.706;2023-12-07T18:35:53;-1.10;99.90
5210;DHT22;2624;48.048;11.706;2023-12-07T18:40:56;-1.60;99.90
5210;DHT22;2624;48.048;11.706;2023-12-07T18:45:58;-1.80;99.90
5210;DHT22;2624;48.048;11.706;2023-12-07T18:51:01;-1.80;99.90
5210;DHT22;2624;48.048;11.706;2023-12-07T18:56:07;-1.90;99.90
5210;DHT22;2624;48.048;11.706;2023-12-07T19:01:09;-1.90;99.90
5210;DHT22;2624;48.048;11.706;2023-12-07T19:06:11;-1.90;99.90
5210;DHT22;2624;48.048;11.706;2023-12-07T19:11:14;-1.70;99.90
5210;DHT22;2624;48.048;11.706;2023-12-07T19:16:16;-1.80;99.90
5210;DHT22;2624;48.048;11.706;2023-12-07T19:21:18;-1.40;99.90
5210;DHT22;2624;48.048;11.706;2023-12-07T19:26:21;-1.20;99.90
5210;DHT22;2624;48.048;11.706;2023-12-07T19:31:23;-0.80;99.90
5210;DHT22;2624;48.048;11.706;2023-12-07T19:36:25;-0.80;99.90
5210;DHT22;2624;48.048;11.706;2023-12-07T19:41:28;-1.20;99.90
5210;DHT22;2624;48.048;11.706;2023-12-07T19:46:30;-1.60;99.90
5210;DHT22;2624;48.048;11.706;2023-12-07T19:51:33;-1.00;99.90
5210;DHT22;2624;48.048;11.706;2023-12-07T19:56:36;-0.70;99.90
5210;DHT22;2624;48.048;11.706;2023-12-07T20:01:37;-0.70;99.90
5210;DHT22;2624;48.048;11.706;2023-12-07T20:06:39;-0.80;99.90
5210;DHT22;2624;48.048;11.706;2023-12-07T20:11:43;-0.70;99.90
5210;DHT22;2624;48.048;11.706;2023-12-07T20:16:45;-0.90;99.90
5210;DHT22;2624;48.048;11.706;2023-12-07T20:21:46;-0.90;99.90
5210;DHT22;2624;48.048;11.706;2023-12-07T20:26:49;-1.10;99.90
5210;DHT22;2624;48.048;11.706;2023-12-07T20:31:51;-1.00;99.90
5210;DHT22;2624;48.048;11.706;2023-12-07T20:36:53;-1.20;99.90
5210;DHT22;2624;48.048;11.706;2023-12-07T20:41:56;-1.00;99.90
5210;DHT22;2624;48.048;11.706;2023-12-07T20:46:58;-0.90;99.90
5210;DHT22;2624;48.048;11.706;2023-12-07T20:52:00;-0.80;99.90
5210;DHT22;2624;48.048;11.706;2023-12-07T20:57:03;-0.80;99.90
5210;DHT22;2624;48.048;11.706;2023-12-07T21:02:05;-1.00;99.90
5210;DHT22;2624;48.048;11.706;2023-12-07T21:07:07;-1.30;99.90
5210;DHT22;2624;48.048;11.706;2023-12-07T21:12:10;-1.10;99.90
5210;DHT22;2624;48.048;11.706;2023-12-07T21:17:12;-1.00;99.90
5210;DHT22;2624;48.048;11.706;2023-12-07T21:22:17;-1.20;99.90
5210;DHT22;2624;48.048;11.706;2023-12-07T21:27:21;-1.10;99.90
5210;DHT22;2624;48.048;11.706;2023-12-07T21:32:23;-1.20;99.90
5210;DHT22;2624;48.048;11.706;2023-12-07T21:37:24;-1.20;99.90
5210;DHT22;2624;48.048;11.706;2023-12-07T21:42:27;-1.00;99.90
5210;DHT22;2624;48.048;11.706;2023-12-07T21:47:29;-1.10;99.90
5210;DHT22;2624;48.048;11.706;2023-12-07T21:52:31;-1.20;99.90
5210;DHT22;2624;48.048;11.706;2023-12-07T21:57:35;-1.20;99.90
5210;DHT22;2624;48.048;11.706;2023-12-07T22:02:36;-1.40;99.90
5210;DHT22;2624;48.048;11.706;2023-12-07T22:07:38;-1.30;99.90
5210;DHT22;2624;48.048;11.706;2023-12-07T22:12:41;-1.30;99.90
5210;DHT22;2624;48.048;11.706;2023-12-07T22:17:43;-1.30;99.90
5210;DHT22;2624;48.048;11.706;2023-12-07T22:22:45;-1.70;99.90
5210;DHT22;2624;48.048;11.706;2023-12-07T22:27:48;-3.00;99.90
5210;DHT22;2624;48.048;11.706;2023-12-07T22:32:50;-2.40;99.90
5210;DHT22;2624;48.048;11.706;2023-12-07T22:37:52;-2.30;99.90
5210;DHT22;2624;48.048;11.706;2023-12-07T22:42:55;-2.20;99.90
5210;DHT22;2624;48.048;11.706;2023-12-07T22:47:57;-1.70;99.90
5210;DHT22;2624;48.048;11.706;2023-12-07T22:52:58;-2.20;99.90
5210;DHT22;2624;48.048;11.706;2023-12-07T22:58:02;-2.40;99.90
5210;DHT22;2624;48.048;11.706;2023-12-07T23:03:03;-2.30;99.90
5210;DHT22;2624;48.048;11.706;2023-12-07T23:08:05;-3.40;99.90
5210;DHT22;2624;48.048;11.706;2023-12-07T23:13:08;-3.50;99.90
5210;DHT22;2624;48.048;11.706;2023-12-07T23:18:10;-3.50;99.90
5210;DHT22;2624;48.048;11.706;2023-12-07T23:23:12;-3.80;99.90
5210;DHT22;2624;48.048;11.706;2023-12-07T23:28:15;-3.80;99.90
5210;DHT22;2624;48.048;11.706;2023-12-07T23:33:17;-3.40;99.90
5210;DHT22;2624;48.048;11.706;2023-12-07T23:38:19;-3.80;99.90
5210;DHT22;2624;48.048;11.706;2023-12-07T23:43:22;-3.80;99.90
5210;DHT22;2624;48.048;11.706;2023-12-07T23:48:24;-3.50;99.90
5210;DHT22;2624;48.048;11.706;2023-12-07T23:53:25;-3.60;99.90
5210;DHT22;2624;48.048;11.706;2023-12-07T23:58:29;-3.60;99.90
